sensor_id;sensor_type;location;lat;lon;timestamp;P1;durP1;ratioP1;P2;durP2;ratioP2
11447;SDS011;43755;49.736;8.734;2023-02-18T00:01:44;10.07;;;9.27;;
11447;SDS011;43755;49.736;8.734;2023-02-18T00:03:47;9.80;;;9.00;;
11447;SDS011;43755;49.736;8.734;2023-02-18T00:05:49;10.13;;;9.32;;
11447;SDS011;43755;49.736;8.734;2023-02-18T00:07:51;10.30;;;9.40;;
11447;SDS011;43755;49.736;8.734;2023-02-18T00:09:52;12.23;;;11.27;;
11447;SDS011;43755;49.736;8.734;2023-02-18T00:11:54;10.65;;;9.75;;
11447;SDS011;43755;49.736;8.734;2023-02-18T00:13:56;10.43;;;9.52;;
11447;SDS011;43755;49.736;8.734;2023-02-18T00:15:59;10.82;;;9.82;;
11447;SDS011;43755;49.736;8.734;2023-02-18T00:18:02;10.52;;;9.73;;
11447;SDS011;43755;49.736;8.734;2023-02-18T00:20:05;10.75;;;9.85;;
11447;SDS011;43755;49.736;8.734;2023-02-18T00:22:08;12.77;;;11.77;;
11447;SDS011;43755;49.736;8.734;2023-02-18T00:24:10;12.90;;;11.90;;
11447;SDS011;43755;49.736;8.734;2023-02-18T00:26:14;11.55;;;10.65;;
11447;SDS011;43755;49.736;8.734;2023-02-18T00:28:17;11.50;;;10.60;;
11447;SDS011;43755;49.736;8.734;2023-02-18T00:30:19;11.73;;;10.63;;
11447;SDS011;43755;49.736;8.734;2023-02-18T00:32:20;12.00;;;11.00;;
11447;SDS011;43755;49.736;8.734;2023-02-18T00:34:22;11.48;;;10.48;;
11447;SDS011;43755;49.736;8.734;2023-02-18T00:36:25;12.98;;;11.88;;
11447;SDS011;43755;49.736;8.734;2023-02-18T00:38:27;12.77;;;11.68;;
11447;SDS011;43755;49.736;8.734;2023-02-18T00:40:28;12.20;;;11.18;;
11447;SDS011;43755;49.736;8.734;2023-02-18T00:42:30;12.95;;;11.80;;
11447;SDS011;43755;49.736;8.734;2023-02-18T00:44:31;13.82;;;12.52;;
11447;SDS011;43755;49.736;8.734;2023-02-18T00:46:33;12.48;;;11.38;;
11447;SDS011;43755;49.736;8.734;2023-02-18T00:48:34;12.88;;;11.77;;
11447;SDS011;43755;49.736;8.734;2023-02-18T00:50:36;13.75;;;12.55;;
11447;SDS011;43755;49.736;8.734;2023-02-18T00:52:39;13.52;;;12.32;;
11447;SDS011;43755;49.736;8.734;2023-02-18T00:54:40;12.90;;;11.75;;
11447;SDS011;43755;49.736;8.734;2023-02-18T00:56:42;13.57;;;12.25;;
11447;SDS011;43755;49.736;8.734;2023-02-18T00:58:43;12.55;;;11.40;;
11447;SDS011;43755;49.736;8.734;2023-02-18T01:00:44;12.45;;;11.32;;
11447;SDS011;43755;49.736;8.734;2023-02-18T01:02:46;13.00;;;11.68;;
11447;SDS011;43755;49.736;8.734;2023-02-18T01:04:48;11.38;;;10.40;;
11447;SDS011;43755;49.736;8.734;2023-02-18T01:06:49;12.00;;;10.90;;
11447;SDS011;43755;49.736;8.734;2023-02-18T01:08:52;13.00;;;11.90;;
11447;SDS011;43755;49.736;8.734;2023-02-18T01:10:54;12.40;;;11.30;;
11447;SDS011;43755;49.736;8.734;2023-02-18T01:12:57;11.73;;;10.73;;
11447;SDS011;43755;49.736;8.734;2023-02-18T01:14:58;13.50;;;12.35;;
11447;SDS011;43755;49.736;8.734;2023-02-18T01:17:00;13.57;;;12.48;;
11447;SDS011;43755;49.736;8.734;2023-02-18T01:19:01;15.27;;;13.98;;
11447;SDS011;43755;49.736;8.734;2023-02-18T01:21:03;14.88;;;13.55;;
11447;SDS011;43755;49.736;8.734;2023-02-18T01:23:07;16.25;;;14.73;;
11447;SDS011;43755;49.736;8.734;2023-02-18T01:25:11;14.35;;;12.95;;
11447;SDS011;43755;49.736;8.734;2023-02-18T01:27:14;13.13;;;11.82;;
11447;SDS011;43755;49.736;8.734;2023-02-18T01:29:15;12.55;;;11.45;;
11447;SDS011;43755;49.736;8.734;2023-02-18T01:31:17;12.07;;;11.02;;
11447;SDS011;43755;49.736;8.734;2023-02-18T01:33:18;10.98;;;10.07;;
11447;SDS011;43755;49.736;8.734;2023-02-18T01:35:20;12.07;;;11.02;;
11447;SDS011;43755;49.736;8.734;2023-02-18T01:37:23;13.38;;;12.18;;
11447;SDS011;43755;49.736;8.734;2023-02-18T01:39:25;14.02;;;12.82;;
11447;SDS011;43755;49.736;8.734;2023-02-18T01:41:28;15.50;;;14.20;;
11447;SDS011;43755;49.736;8.734;2023-02-18T01:43:29;14.43;;;13.20;;
11447;SDS011;43755;49.736;8.734;2023-02-18T01:45:44;14.95;;;13.55;;
11447;SDS011;43755;49.736;8.734;2023-02-18T01:47:50;16.45;;;14.95;;
11447;SDS011;43755;49.736;8.734;2023-02-18T01:49:52;16.48;;;14.98;;
11447;SDS011;43755;49.736;8.734;2023-02-18T01:51:56;15.38;;;14.07;;
11447;SDS011;43755;49.736;8.734;2023-02-18T01:54:01;15.52;;;14.13;;
11447;SDS011;43755;49.736;8.734;2023-02-18T01:56:07;15.13;;;13.65;;
11447;SDS011;43755;49.736;8.734;2023-02-18T01:58:15;14.13;;;12.73;;
11447;SDS011;43755;49.736;8.734;2023-02-18T02:00:17;14.60;;;13.20;;
11447;SDS011;43755;49.736;8.734;2023-02-18T02:02:21;15.80;;;14.40;;
11447;SDS011;43755;49.736;8.734;2023-02-18T02:04:25;15.55;;;14.05;;
11447;SDS011;43755;49.736;8.734;2023-02-18T02:06:27;15.10;;;13.73;;
11447;SDS011;43755;49.736;8.734;2023-02-18T02:08:28;14.48;;;13.18;;
11447;SDS011;43755;49.736;8.734;2023-02-18T02:10:32;14.52;;;13.23;;
11447;SDS011;43755;49.736;8.734;2023-02-18T02:12:46;15.95;;;14.35;;
11447;SDS011;43755;49.736;8.734;2023-02-18T02:17:34;17.27;;;15.65;;
11447;SDS011;43755;49.736;8.734;2023-02-18T02:20:01;15.65;;;14.25;;
11447;SDS011;43755;49.736;8.734;2023-02-18T02:22:33;14.95;;;13.45;;
11447;SDS011;43755;49.736;8.734;2023-02-18T02:25:03;15.07;;;13.55;;
11447;SDS011;43755;49.736;8.734;2023-02-18T02:27:14;14.48;;;13.27;;
11447;SDS011;43755;49.736;8.734;2023-02-18T02:29:31;14.80;;;13.50;;
11447;SDS011;43755;49.736;8.734;2023-02-18T02:32:16;16.23;;;14.52;;
11447;SDS011;43755;49.736;8.734;2023-02-18T02:34:33;15.65;;;14.23;;
11447;SDS011;43755;49.736;8.734;2023-02-18T02:36:46;14.32;;;13.02;;
11447;SDS011;43755;49.736;8.734;2023-02-18T02:38:55;14.63;;;13.25;;
11447;SDS011;43755;49.736;8.734;2023-02-18T02:41:08;15.75;;;14.30;;
11447;SDS011;43755;49.736;8.734;2023-02-18T02:43:18;14.32;;;12.95;;
11447;SDS011;43755;49.736;8.734;2023-02-18T02:45:28;13.90;;;12.70;;
11447;SDS011;43755;49.736;8.734;2023-02-18T02:47:43;14.75;;;12.88;;
11447;SDS011;43755;49.736;8.734;2023-02-18T02:49:52;13.75;;;12.38;;
11447;SDS011;43755;49.736;8.734;2023-02-18T02:52:02;12.43;;;11.23;;
11447;SDS011;43755;49.736;8.734;2023-02-18T02:54:10;12.88;;;11.70;;
11447;SDS011;43755;49.736;8.734;2023-02-18T02:56:14;12.38;;;11.27;;
11447;SDS011;43755;49.736;8.734;2023-02-18T02:58:18;12.43;;;11.27;;
11447;SDS011;43755;49.736;8.734;2023-02-18T03:00:20;12.52;;;11.48;;
11447;SDS011;43755;49.736;8.734;2023-02-18T03:02:28;13.02;;;11.77;;
11447;SDS011;43755;49.736;8.734;2023-02-18T03:04:48;14.70;;;13.10;;
11447;SDS011;43755;49.736;8.734;2023-02-18T03:07:04;14.25;;;12.95;;
11447;SDS011;43755;49.736;8.734;2023-02-18T03:09:33;13.98;;;12.68;;
11447;SDS011;43755;49.736;8.734;2023-02-18T03:11:50;13.15;;;11.90;;
11447;SDS011;43755;49.736;8.734;2023-02-18T03:14:01;13.90;;;12.20;;
11447;SDS011;43755;49.736;8.734;2023-02-18T03:16:12;12.85;;;11.65;;
11447;SDS011;43755;49.736;8.734;2023-02-18T03:18:25;12.80;;;11.60;;
11447;SDS011;43755;49.736;8.734;2023-02-18T03:20:35;13.27;;;12.10;;
11447;SDS011;43755;49.736;8.734;2023-02-18T03:22:40;13.48;;;11.98;;
11447;SDS011;43755;49.736;8.734;2023-02-18T03:24:46;13.35;;;12.02;;
11447;SDS011;43755;49.736;8.734;2023-02-18T03:26:50;11.85;;;10.65;;
11447;SDS011;43755;49.736;8.734;2023-02-18T03:28:55;12.18;;;10.90;;
11447;SDS011;43755;49.736;8.734;2023-02-18T03:31:02;11.13;;;9.98;;
11447;SDS011;43755;49.736;8.734;2023-02-18T03:33:10;10.82;;;9.73;;
11447;SDS011;43755;49.736;8.734;2023-02-18T03:35:16;10.48;;;9.48;;
11447;SDS011;43755;49.736;8.734;2023-02-18T03:37:21;10.48;;;9.45;;
11447;SDS011;43755;49.736;8.734;2023-02-18T03:39:25;10.70;;;9.55;;
11447;SDS011;43755;49.736;8.734;2023-02-18T03:41:28;11.30;;;10.30;;
11447;SDS011;43755;49.736;8.734;2023-02-18T03:43:30;10.57;;;9.68;;
11447;SDS011;43755;49.736;8.734;2023-02-18T03:45:32;10.57;;;9.57;;
11447;SDS011;43755;49.736;8.734;2023-02-18T03:47:33;10.63;;;9.60;;
11447;SDS011;43755;49.736;8.734;2023-02-18T03:49:35;10.50;;;9.50;;
11447;SDS011;43755;49.736;8.734;2023-02-18T03:51:36;10.75;;;9.65;;
11447;SDS011;43755;49.736;8.734;2023-02-18T03:53:39;10.85;;;9.85;;
11447;SDS011;43755;49.736;8.734;2023-02-18T03:55:41;10.27;;;9.27;;
11447;SDS011;43755;49.736;8.734;2023-02-18T03:57:42;10.05;;;9.15;;
11447;SDS011;43755;49.736;8.734;2023-02-18T03:59:44;10.93;;;9.45;;
11447;SDS011;43755;49.736;8.734;2023-02-18T04:01:45;9.25;;;8.45;;
11447;SDS011;43755;49.736;8.734;2023-02-18T04:03:46;9.10;;;8.30;;
11447;SDS011;43755;49.736;8.734;2023-02-18T04:05:48;9.05;;;8.25;;
11447;SDS011;43755;49.736;8.734;2023-02-18T04:07:49;9.02;;;8.13;;
11447;SDS011;43755;49.736;8.734;2023-02-18T04:09:52;8.90;;;8.10;;
11447;SDS011;43755;49.736;8.734;2023-02-18T04:11:53;9.55;;;8.73;;
11447;SDS011;43755;49.736;8.734;2023-02-18T04:13:55;9.25;;;8.45;;
11447;SDS011;43755;49.736;8.734;2023-02-18T04:15:56;8.98;;;7.80;;
11447;SDS011;43755;49.736;8.734;2023-02-18T04:17:58;9.45;;;8.55;;
11447;SDS011;43755;49.736;8.734;2023-02-18T04:19:59;8.88;;;8.07;;
11447;SDS011;43755;49.736;8.734;2023-02-18T04:22:01;9.13;;;8.25;;
11447;SDS011;43755;49.736;8.734;2023-02-18T04:24:03;8.45;;;7.65;;
11447;SDS011;43755;49.736;8.734;2023-02-18T04:26:05;9.07;;;8.27;;
11447;SDS011;43755;49.736;8.734;2023-02-18T04:28:07;8.55;;;7.85;;
11447;SDS011;43755;49.736;8.734;2023-02-18T04:30:12;8.10;;;7.30;;
11447;SDS011;43755;49.736;8.734;2023-02-18T04:32:14;8.40;;;7.57;;
11447;SDS011;43755;49.736;8.734;2023-02-18T04:34:15;9.10;;;8.30;;
11447;SDS011;43755;49.736;8.734;2023-02-18T04:36:16;7.13;;;6.63;;
11447;SDS011;43755;49.736;8.734;2023-02-18T04:38:18;8.05;;;7.22;;
11447;SDS011;43755;49.736;8.734;2023-02-18T04:40:19;8.63;;;7.22;;
11447;SDS011;43755;49.736;8.734;2023-02-18T04:42:22;7.82;;;7.10;;
11447;SDS011;43755;49.736;8.734;2023-02-18T04:44:23;7.95;;;7.25;;
11447;SDS011;43755;49.736;8.734;2023-02-18T04:46:25;9.38;;;7.55;;
11447;SDS011;43755;49.736;8.734;2023-02-18T04:48:26;8.48;;;7.65;;
11447;SDS011;43755;49.736;8.734;2023-02-18T04:50:28;8.73;;;8.00;;
11447;SDS011;43755;49.736;8.734;2023-02-18T04:52:29;8.65;;;7.85;;
11447;SDS011;43755;49.736;8.734;2023-02-18T04:54:30;8.98;;;8.18;;
11447;SDS011;43755;49.736;8.734;2023-02-18T04:56:32;9.27;;;8.40;;
11447;SDS011;43755;49.736;8.734;2023-02-18T04:58:35;9.93;;;9.02;;
11447;SDS011;43755;49.736;8.734;2023-02-18T05:00:36;9.77;;;8.98;;
11447;SDS011;43755;49.736;8.734;2023-02-18T05:02:37;9.77;;;8.88;;
11447;SDS011;43755;49.736;8.734;2023-02-18T05:04:39;10.48;;;9.52;;
11447;SDS011;43755;49.736;8.734;2023-02-18T05:06:40;10.50;;;9.60;;
11447;SDS011;43755;49.736;8.734;2023-02-18T05:08:43;10.52;;;9.43;;
11447;SDS011;43755;49.736;8.734;2023-02-18T05:10:44;10.38;;;9.43;;
11447;SDS011;43755;49.736;8.734;2023-02-18T05:12:45;10.50;;;9.60;;
11447;SDS011;43755;49.736;8.734;2023-02-18T05:14:48;10.77;;;9.88;;
11447;SDS011;43755;49.736;8.734;2023-02-18T05:16:50;10.35;;;9.45;;
11447;SDS011;43755;49.736;8.734;2023-02-18T05:18:51;10.43;;;9.32;;
11447;SDS011;43755;49.736;8.734;2023-02-18T05:20:52;9.98;;;9.07;;
11447;SDS011;43755;49.736;8.734;2023-02-18T05:22:54;9.95;;;9.15;;
11447;SDS011;43755;49.736;8.734;2023-02-18T05:24:55;10.35;;;9.45;;
11447;SDS011;43755;49.736;8.734;2023-02-18T05:26:57;9.68;;;8.95;;
11447;SDS011;43755;49.736;8.734;2023-02-18T05:28:58;9.48;;;8.68;;
11447;SDS011;43755;49.736;8.734;2023-02-18T05:31:01;10.45;;;9.55;;
11447;SDS011;43755;49.736;8.734;2023-02-18T05:33:02;9.82;;;8.93;;
11447;SDS011;43755;49.736;8.734;2023-02-18T05:35:04;9.73;;;8.82;;
11447;SDS011;43755;49.736;8.734;2023-02-18T05:37:06;10.50;;;9.60;;
11447;SDS011;43755;49.736;8.734;2023-02-18T05:39:08;9.60;;;8.80;;
11447;SDS011;43755;49.736;8.734;2023-02-18T05:41:09;10.00;;;9.10;;
11447;SDS011;43755;49.736;8.734;2023-02-18T05:43:10;10.77;;;9.77;;
11447;SDS011;43755;49.736;8.734;2023-02-18T05:45:12;10.07;;;9.15;;
11447;SDS011;43755;49.736;8.734;2023-02-18T05:47:14;10.03;;;9.03;;
11447;SDS011;43755;49.736;8.734;2023-02-18T05:49:15;10.75;;;9.65;;
11447;SDS011;43755;49.736;8.734;2023-02-18T05:51:17;10.27;;;8.95;;
11447;SDS011;43755;49.736;8.734;2023-02-18T05:53:18;10.13;;;9.13;;
11447;SDS011;43755;49.736;8.734;2023-02-18T05:55:20;9.55;;;8.57;;
11447;SDS011;43755;49.736;8.734;2023-02-18T05:57:23;9.48;;;8.57;;
11447;SDS011;43755;49.736;8.734;2023-02-18T05:59:24;9.55;;;8.32;;
11447;SDS011;43755;49.736;8.734;2023-02-18T06:01:26;9.48;;;8.10;;
11447;SDS011;43755;49.736;8.734;2023-02-18T06:03:28;9.90;;;8.73;;
11447;SDS011;43755;49.736;8.734;2023-02-18T06:05:30;9.60;;;8.07;;
11447;SDS011;43755;49.736;8.734;2023-02-18T06:07:31;8.48;;;7.78;;
11447;SDS011;43755;49.736;8.734;2023-02-18T06:09:33;8.48;;;7.68;;
11447;SDS011;43755;49.736;8.734;2023-02-18T06:11:35;7.95;;;7.28;;
11447;SDS011;43755;49.736;8.734;2023-02-18T06:13:37;8.13;;;7.40;;
11447;SDS011;43755;49.736;8.734;2023-02-18T06:15:39;7.90;;;7.30;;
11447;SDS011;43755;49.736;8.734;2023-02-18T06:17:40;8.48;;;7.78;;
11447;SDS011;43755;49.736;8.734;2023-02-18T06:19:43;8.25;;;7.55;;
11447;SDS011;43755;49.736;8.734;2023-02-18T06:21:45;8.07;;;7.28;;
11447;SDS011;43755;49.736;8.734;2023-02-18T06:23:46;8.02;;;7.25;;
11447;SDS011;43755;49.736;8.734;2023-02-18T06:25:47;8.27;;;7.47;;
11447;SDS011;43755;49.736;8.734;2023-02-18T06:27:49;7.32;;;6.72;;
11447;SDS011;43755;49.736;8.734;2023-02-18T06:29:51;7.10;;;6.50;;
11447;SDS011;43755;49.736;8.734;2023-02-18T06:31:52;8.00;;;7.40;;
11447;SDS011;43755;49.736;8.734;2023-02-18T06:33:53;7.65;;;6.85;;
11447;SDS011;43755;49.736;8.734;2023-02-18T06:35:57;7.97;;;7.28;;
11447;SDS011;43755;49.736;8.734;2023-02-18T06:38:00;8.18;;;7.50;;
11447;SDS011;43755;49.736;8.734;2023-02-18T06:40:01;8.50;;;7.70;;
11447;SDS011;43755;49.736;8.734;2023-02-18T06:42:03;8.18;;;7.53;;
11447;SDS011;43755;49.736;8.734;2023-02-18T06:44:04;8.57;;;7.88;;
11447;SDS011;43755;49.736;8.734;2023-02-18T06:46:06;7.72;;;7.13;;
11447;SDS011;43755;49.736;8.734;2023-02-18T06:48:07;8.57;;;7.97;;
11447;SDS011;43755;49.736;8.734;2023-02-18T06:50:09;9.20;;;8.40;;
11447;SDS011;43755;49.736;8.734;2023-02-18T06:52:12;7.90;;;7.30;;
11447;SDS011;43755;49.736;8.734;2023-02-18T06:54:13;9.35;;;8.45;;
11447;SDS011;43755;49.736;8.734;2023-02-18T06:56:15;8.57;;;7.78;;
11447;SDS011;43755;49.736;8.734;2023-02-18T06:58:16;8.73;;;8.02;;
11447;SDS011;43755;49.736;8.734;2023-02-18T07:00:18;8.70;;;8.00;;
11447;SDS011;43755;49.736;8.734;2023-02-18T07:02:21;8.48;;;7.68;;
11447;SDS011;43755;49.736;8.734;2023-02-18T07:04:23;8.60;;;7.80;;
11447;SDS011;43755;49.736;8.734;2023-02-18T07:06:24;8.80;;;7.95;;
11447;SDS011;43755;49.736;8.734;2023-02-18T07:08:27;8.32;;;7.63;;
11447;SDS011;43755;49.736;8.734;2023-02-18T07:10:29;7.95;;;7.35;;
11447;SDS011;43755;49.736;8.734;2023-02-18T07:12:31;8.30;;;7.60;;
11447;SDS011;43755;49.736;8.734;2023-02-18T07:14:32;8.60;;;7.90;;
11447;SDS011;43755;49.736;8.734;2023-02-18T07:16:34;8.77;;;8.02;;
11447;SDS011;43755;49.736;8.734;2023-02-18T07:18:35;8.82;;;8.10;;
11447;SDS011;43755;49.736;8.734;2023-02-18T07:20:37;9.98;;;9.18;;
11447;SDS011;43755;49.736;8.734;2023-02-18T07:22:38;10.73;;;9.77;;
11447;SDS011;43755;49.736;8.734;2023-02-18T07:24:41;12.05;;;10.85;;
11447;SDS011;43755;49.736;8.734;2023-02-18T07:26:42;11.25;;;10.35;;
11447;SDS011;43755;49.736;8.734;2023-02-18T07:28:44;11.27;;;10.18;;
11447;SDS011;43755;49.736;8.734;2023-02-18T07:30:45;10.40;;;9.50;;
11447;SDS011;43755;49.736;8.734;2023-02-18T07:32:47;10.52;;;9.57;;
11447;SDS011;43755;49.736;8.734;2023-02-18T07:34:49;10.85;;;9.75;;
11447;SDS011;43755;49.736;8.734;2023-02-18T07:36:51;10.85;;;9.85;;
11447;SDS011;43755;49.736;8.734;2023-02-18T07:38:52;10.85;;;9.90;;
11447;SDS011;43755;49.736;8.734;2023-02-18T07:40:56;9.63;;;8.75;;
11447;SDS011;43755;49.736;8.734;2023-02-18T07:42:58;10.23;;;9.30;;
11447;SDS011;43755;49.736;8.734;2023-02-18T07:44:59;9.38;;;8.55;;
11447;SDS011;43755;49.736;8.734;2023-02-18T07:47:01;9.90;;;8.95;;
11447;SDS011;43755;49.736;8.734;2023-02-18T07:49:03;9.65;;;8.75;;
11447;SDS011;43755;49.736;8.734;2023-02-18T07:51:05;10.05;;;9.15;;
11447;SDS011;43755;49.736;8.734;2023-02-18T07:53:07;9.50;;;8.60;;
11447;SDS011;43755;49.736;8.734;2023-02-18T07:55:10;10.00;;;9.10;;
11447;SDS011;43755;49.736;8.734;2023-02-18T07:57:12;9.23;;;8.43;;
11447;SDS011;43755;49.736;8.734;2023-02-18T07:59:14;9.13;;;8.30;;
11447;SDS011;43755;49.736;8.734;2023-02-18T08:01:15;9.70;;;8.85;;
11447;SDS011;43755;49.736;8.734;2023-02-18T08:03:17;8.95;;;8.15;;
11447;SDS011;43755;49.736;8.734;2023-02-18T08:05:19;9.98;;;9.07;;
11447;SDS011;43755;49.736;8.734;2023-02-18T08:07:21;9.75;;;8.68;;
11447;SDS011;43755;49.736;8.734;2023-02-18T08:09:23;9.93;;;8.77;;
11447;SDS011;43755;49.736;8.734;2023-02-18T08:11:24;9.45;;;8.43;;
11447;SDS011;43755;49.736;8.734;2023-02-18T08:13:27;9.02;;;8.23;;
11447;SDS011;43755;49.736;8.734;2023-02-18T08:15:29;9.15;;;8.32;;
11447;SDS011;43755;49.736;8.734;2023-02-18T08:17:30;9.88;;;8.88;;
11447;SDS011;43755;49.736;8.734;2023-02-18T08:19:32;9.95;;;8.98;;
11447;SDS011;43755;49.736;8.734;2023-02-18T08:21:33;9.63;;;8.65;;
11447;SDS011;43755;49.736;8.734;2023-02-18T08:23:35;9.45;;;8.52;;
11447;SDS011;43755;49.736;8.734;2023-02-18T08:25:36;9.45;;;8.40;;
11447;SDS011;43755;49.736;8.734;2023-02-18T08:27:37;8.90;;;8.10;;
11447;SDS011;43755;49.736;8.734;2023-02-18T08:29:40;8.93;;;8.13;;
11447;SDS011;43755;49.736;8.734;2023-02-18T08:31:41;8.60;;;7.80;;
11447;SDS011;43755;49.736;8.734;2023-02-18T08:33:43;9.18;;;8.40;;
11447;SDS011;43755;49.736;8.734;2023-02-18T08:35:45;9.45;;;8.65;;
11447;SDS011;43755;49.736;8.734;2023-02-18T08:37:47;9.20;;;8.30;;
11447;SDS011;43755;49.736;8.734;2023-02-18T08:39:49;9.73;;;8.82;;
11447;SDS011;43755;49.736;8.734;2023-02-18T08:41:50;9.45;;;8.55;;
11447;SDS011;43755;49.736;8.734;2023-02-18T08:43:51;9.88;;;8.98;;
11447;SDS011;43755;49.736;8.734;2023-02-18T08:45:55;9.27;;;8.30;;
11447;SDS011;43755;49.736;8.734;2023-02-18T08:47:57;8.30;;;7.50;;
11447;SDS011;43755;49.736;8.734;2023-02-18T08:49:59;8.82;;;8.02;;
11447;SDS011;43755;49.736;8.734;2023-02-18T08:52:00;9.07;;;8.27;;
11447;SDS011;43755;49.736;8.734;2023-02-18T08:54:02;8.70;;;7.90;;
11447;SDS011;43755;49.736;8.734;2023-02-18T08:56:04;8.73;;;7.75;;
11447;SDS011;43755;49.736;8.734;2023-02-18T08:58:07;8.35;;;7.63;;
11447;SDS011;43755;49.736;8.734;2023-02-18T09:00:09;9.40;;;8.23;;
11447;SDS011;43755;49.736;8.734;2023-02-18T09:02:13;9.13;;;8.23;;
11447;SDS011;43755;49.736;8.734;2023-02-18T09:04:15;9.10;;;8.30;;
11447;SDS011;43755;49.736;8.734;2023-02-18T09:06:17;8.43;;;7.72;;
11447;SDS011;43755;49.736;8.734;2023-02-18T09:08:18;8.15;;;7.35;;
11447;SDS011;43755;49.736;8.734;2023-02-18T09:10:20;7.30;;;6.72;;
11447;SDS011;43755;49.736;8.734;2023-02-18T09:12:21;7.50;;;6.90;;
11447;SDS011;43755;49.736;8.734;2023-02-18T09:14:23;7.63;;;6.93;;
11447;SDS011;43755;49.736;8.734;2023-02-18T09:16:24;7.15;;;6.45;;
11447;SDS011;43755;49.736;8.734;2023-02-18T09:18:28;7.38;;;6.78;;
11447;SDS011;43755;49.736;8.734;2023-02-18T09:20:30;7.38;;;6.70;;
11447;SDS011;43755;49.736;8.734;2023-02-18T09:22:31;6.85;;;6.25;;
11447;SDS011;43755;49.736;8.734;2023-02-18T09:24:35;6.97;;;6.28;;
11447;SDS011;43755;49.736;8.734;2023-02-18T09:26:38;7.25;;;6.55;;
11447;SDS011;43755;49.736;8.734;2023-02-18T09:28:39;6.85;;;6.15;;
11447;SDS011;43755;49.736;8.734;2023-02-18T09:30:41;7.20;;;6.60;;
11447;SDS011;43755;49.736;8.734;2023-02-18T09:32:43;7.30;;;6.70;;
11447;SDS011;43755;49.736;8.734;2023-02-18T09:34:45;6.90;;;6.30;;
11447;SDS011;43755;49.736;8.734;2023-02-18T09:36:47;6.63;;;6.13;;
11447;SDS011;43755;49.736;8.734;2023-02-18T09:38:48;5.78;;;5.28;;
11447;SDS011;43755;49.736;8.734;2023-02-18T09:40:51;6.60;;;6.00;;
11447;SDS011;43755;49.736;8.734;2023-02-18T09:42:54;6.38;;;5.95;;
11447;SDS011;43755;49.736;8.734;2023-02-18T09:44:58;6.25;;;5.75;;
11447;SDS011;43755;49.736;8.734;2023-02-18T09:47:02;5.70;;;5.30;;
11447;SDS011;43755;49.736;8.734;2023-02-18T09:49:07;6.10;;;5.47;;
11447;SDS011;43755;49.736;8.734;2023-02-18T09:51:16;6.05;;;5.47;;
11447;SDS011;43755;49.736;8.734;2023-02-18T09:53:20;6.28;;;5.68;;
11447;SDS011;43755;49.736;8.734;2023-02-18T09:55:23;6.50;;;6.00;;
11447;SDS011;43755;49.736;8.734;2023-02-18T09:57:28;6.03;;;5.53;;
11447;SDS011;43755;49.736;8.734;2023-02-18T09:59:39;6.30;;;5.80;;
11447;SDS011;43755;49.736;8.734;2023-02-18T10:01:41;6.55;;;6.05;;
11447;SDS011;43755;49.736;8.734;2023-02-18T10:03:44;5.93;;;5.43;;
11447;SDS011;43755;49.736;8.734;2023-02-18T10:05:49;6.30;;;5.80;;
11447;SDS011;43755;49.736;8.734;2023-02-18T10:07:58;6.65;;;5.90;;
11447;SDS011;43755;49.736;8.734;2023-02-18T10:10:10;6.95;;;6.25;;
11447;SDS011;43755;49.736;8.734;2023-02-18T10:12:19;5.88;;;5.40;;
11447;SDS011;43755;49.736;8.734;2023-02-18T10:14:22;6.78;;;6.25;;
11447;SDS011;43755;49.736;8.734;2023-02-18T10:16:25;7.57;;;6.68;;
11447;SDS011;43755;49.736;8.734;2023-02-18T10:18:28;6.40;;;5.90;;
11447;SDS011;43755;49.736;8.734;2023-02-18T10:20:31;6.28;;;5.78;;
11447;SDS011;43755;49.736;8.734;2023-02-18T10:22:34;6.35;;;5.85;;
11447;SDS011;43755;49.736;8.734;2023-02-18T10:24:39;5.80;;;5.30;;
11447;SDS011;43755;49.736;8.734;2023-02-18T10:26:42;7.13;;;6.53;;
11447;SDS011;43755;49.736;8.734;2023-02-18T10:28:44;6.50;;;5.90;;
11447;SDS011;43755;49.736;8.734;2023-02-18T10:30:46;6.32;;;5.78;;
11447;SDS011;43755;49.736;8.734;2023-02-18T10:32:58;6.40;;;5.82;;
11447;SDS011;43755;49.736;8.734;2023-02-18T10:35:13;6.68;;;6.07;;
11447;SDS011;43755;49.736;8.734;2023-02-18T10:37:37;6.22;;;5.68;;
11447;SDS011;43755;49.736;8.734;2023-02-18T10:39:54;6.47;;;5.88;;
11447;SDS011;43755;49.736;8.734;2023-02-18T10:42:04;6.20;;;5.60;;
11447;SDS011;43755;49.736;8.734;2023-02-18T10:44:17;6.20;;;5.70;;
11447;SDS011;43755;49.736;8.734;2023-02-18T10:46:31;5.45;;;4.95;;
11447;SDS011;43755;49.736;8.734;2023-02-18T10:48:48;5.30;;;4.90;;
11447;SDS011;43755;49.736;8.734;2023-02-18T10:51:01;5.10;;;4.70;;
11447;SDS011;43755;49.736;8.734;2023-02-18T10:53:14;5.55;;;4.45;;
11447;SDS011;43755;49.736;8.734;2023-02-18T10:55:32;5.57;;;4.63;;
11447;SDS011;43755;49.736;8.734;2023-02-18T10:57:41;5.72;;;4.85;;
11447;SDS011;43755;49.736;8.734;2023-02-18T10:59:56;5.10;;;4.60;;
11447;SDS011;43755;49.736;8.734;2023-02-18T11:02:00;4.90;;;4.50;;
11447;SDS011;43755;49.736;8.734;2023-02-18T11:04:06;4.70;;;4.15;;
11447;SDS011;43755;49.736;8.734;2023-02-18T11:06:18;4.75;;;4.35;;
11447;SDS011;43755;49.736;8.734;2023-02-18T11:08:25;4.82;;;4.50;;
11447;SDS011;43755;49.736;8.734;2023-02-18T11:10:29;4.50;;;4.10;;
11447;SDS011;43755;49.736;8.734;2023-02-18T11:12:34;5.45;;;4.03;;
11447;SDS011;43755;49.736;8.734;2023-02-18T11:14:46;4.68;;;4.28;;
11447;SDS011;43755;49.736;8.734;2023-02-18T11:16:49;4.20;;;3.90;;
11447;SDS011;43755;49.736;8.734;2023-02-18T11:18:55;4.45;;;4.10;;
11447;SDS011;43755;49.736;8.734;2023-02-18T11:20:58;4.55;;;3.70;;
11447;SDS011;43755;49.736;8.734;2023-02-18T11:23:14;4.20;;;3.90;;
11447;SDS011;43755;49.736;8.734;2023-02-18T11:25:19;3.83;;;3.50;;
11447;SDS011;43755;49.736;8.734;2023-02-18T11:27:24;4.07;;;3.60;;
11447;SDS011;43755;49.736;8.734;2023-02-18T11:29:30;3.83;;;3.53;;
11447;SDS011;43755;49.736;8.734;2023-02-18T11:31:37;3.85;;;3.40;;
11447;SDS011;43755;49.736;8.734;2023-02-18T11:33:42;3.15;;;2.92;;
11447;SDS011;43755;49.736;8.734;2023-02-18T11:35:48;12.50;;;4.22;;
11447;SDS011;43755;49.736;8.734;2023-02-18T11:37:52;3.28;;;2.83;;
11447;SDS011;43755;49.736;8.734;2023-02-18T11:39:54;4.40;;;3.05;;
11447;SDS011;43755;49.736;8.734;2023-02-18T11:41:56;3.10;;;2.72;;
11447;SDS011;43755;49.736;8.734;2023-02-18T11:44:00;3.33;;;3.03;;
11447;SDS011;43755;49.736;8.734;2023-02-18T11:46:08;3.83;;;2.58;;
11447;SDS011;43755;49.736;8.734;2023-02-18T11:48:14;3.13;;;2.83;;
11447;SDS011;43755;49.736;8.734;2023-02-18T11:50:20;3.10;;;2.85;;
11447;SDS011;43755;49.736;8.734;2023-02-18T11:52:23;3.60;;;2.53;;
11447;SDS011;43755;49.736;8.734;2023-02-18T11:54:27;3.10;;;2.80;;
11447;SDS011;43755;49.736;8.734;2023-02-18T11:56:31;2.67;;;2.50;;
11447;SDS011;43755;49.736;8.734;2023-02-18T11:58:36;2.70;;;2.42;;
11447;SDS011;43755;49.736;8.734;2023-02-18T12:00:42;3.70;;;2.30;;
11447;SDS011;43755;49.736;8.734;2023-02-18T12:02:45;2.72;;;2.53;;
11447;SDS011;43755;49.736;8.734;2023-02-18T12:04:48;5.90;;;2.47;;
11447;SDS011;43755;49.736;8.734;2023-02-18T12:06:54;4.72;;;2.40;;
11447;SDS011;43755;49.736;8.734;2023-02-18T12:09:17;3.30;;;2.65;;
11447;SDS011;43755;49.736;8.734;2023-02-18T12:11:25;2.50;;;2.30;;
11447;SDS011;43755;49.736;8.734;2023-02-18T12:13:31;2.85;;;2.50;;
11447;SDS011;43755;49.736;8.734;2023-02-18T12:15:39;5.30;;;2.90;;
11447;SDS011;43755;49.736;8.734;2023-02-18T12:18:07;2.67;;;2.42;;
11447;SDS011;43755;49.736;8.734;2023-02-18T12:20:41;2.63;;;2.42;;
11447;SDS011;43755;49.736;8.734;2023-02-18T12:22:57;2.72;;;2.30;;
11447;SDS011;43755;49.736;8.734;2023-02-18T12:27:31;2.58;;;2.38;;